Estación Meteorológica Peña el Pijo (Robertgarden) [ 11/20/18 00:59:56 CET ]

Fecha Hora Presion(HPa) Temp (°C) Humedad % Rocio (°C) Viento ( m/s) Direccion Lluvia 1Hora(mm) Lluvia 24H(mm) LLuvia Total(mm)
2018-Jan-07 01:01:48 987.000 1.8 80 -1.3       3.10 31.08
2018-Jan-07 02:08:04 986.700 1.8 79 -1.5       3.10 31.08
2018-Jan-07 03:01:54 986.800 1.4 78 -2.1 2.3 WNW   3.10 31.08
2018-Jan-07 04:01:52 987.200 1.3 78 -2.2       3.10 31.08
2018-Jan-07 05:01:45 987.300 1.3 77 -2.3       3.10 31.08
2018-Jan-07 06:01:40 987.200 0.8 78 -2.6       3.10 31.08
2018-Jan-07 07:01:59 987.300 0.6 76 -3.2       3.10 31.08
2018-Jan-07 08:01:42 987.400 -0.1 75 -4.0       3.10 31.08
2018-Jan-07 09:01:42 988.300 -0.2 74 -4.3       3.10 31.08
2018-Jan-07 10:02:13 989.400 2.3 72 -2.2       3.10 31.08
2018-Jan-07 11:01:59 989.900 4.4 62 -2.3       3.10 31.08
2018-Jan-07 12:01:36 989.900 5.6 59 -1.8       3.10 31.08
2018-Jan-07 13:01:42 989.400 6.3 55 -2.1       1.55 31.08
2018-Jan-07 14:01:54 989.500 6.6 47 -4.0         31.08
2018-Jan-07 15:01:43 989.900 5.1 50 -4.5 4.0 N     31.08
2018-Jan-07 16:01:43 990.100 4.6 50 -5.0         31.08
2018-Jan-07 17:01:33 990.500 3.9 53 -4.9         31.08
2018-Jan-07 18:01:42 991.300 2.4 58 -5.0         31.08
2018-Jan-07 19:01:28 992.000 2.3 64 -3.8         31.08
2018-Jan-07 20:01:37 992.600 0.8 67 -4.7         31.08
2018-Jan-07 21:01:25 992.900 -0.2 72 -4.6         31.08
2018-Jan-07 22:01:42 993.300 -1.3 75 -5.2         31.08
2018-Jan-07 23:01:47 993.700 -1.7 77 -5.2         31.08

Temperatura Máxima:    Temperatura Mínima:-1°
Presión Máxima:993.700 Hpa    Presión Mínima:986.700 Hpa


Volver